KSTJ/STJ METAR and TAF weather

Enter ICAO airport designator
Station Type Date Time Source
KSTJ METAR 2019/05/21 20:53 UTC NOAA

KSTJ 212053Z AUTO 08017G24KT 6SM -RA BR OVC007 13/13 A2936 RMK AO2 RAB02 CIG 005V009 PRESFR SLP940 P0004 60004 T01280128 58064


Station Type Date Time Source
KSTJ Decoded METAR 2019/05/21 20:53 UTC NOAA

ROSECRANS MEMORIAL AIRPORT, MO, United States (KSTJ) 39-46N 94-55W 247M
May 21, 2019 - 04:53 PM EDT / 2019.05.21 2053 UTC
Wind: from the E (080 degrees) at 20 MPH (17 KT) gusting to 28 MPH (24 KT):0
Visibility: 6 mile(s):0
Sky conditions: overcast
Weather: light rain; mist
Precipitation last hour: 0.04 inches
Temperature: 55.0 F (12.8 C)
Dew Point: 55.0 F (12.8 C)
Relative Humidity: 100%
Pressure (altimeter): 29.36 in. Hg (994 hPa)
Pressure tendency: falling rapidly - 0.19 inches (6.4 hPa) lower than three hours ago
ob: KSTJ 212053Z AUTO 08017G24KT 6SM -RA BR OVC007 13/13 A2936 RMK AO2 RAB02 CIG 005V009 PRESFR SLP940 P0004 60004 T01280128 58064
cycle: 21

Station Type Date Time Source
KSTJ TAF 2019/05/21 18:34 UTC NOAA

TAF KSTJ 211732Z 2118/2218 09017G27KT P6SM BKN035
TEMPO 2118/2122 5SM -TSRA BR OVC010CB
FM212200 14013G23KT P6SM VCSH BKN060
FM220300 17012KT P6SM SCT100 WS020/19040KT
FM220800 21010KT P6SM FEW200

Example: see airport list